sensor_id;sensor_type;location;lat;lon;timestamp;temperature;humidity
25877;DHT22;13692;47.480;19.216;2023-01-29T00:01:37;3.40;99.90
25877;DHT22;13692;47.480;19.216;2023-01-29T00:04:04;3.40;99.90
25877;DHT22;13692;47.480;19.216;2023-01-29T00:06:31;3.40;99.90
25877;DHT22;13692;47.480;19.216;2023-01-29T00:08:58;3.40;99.90
25877;DHT22;13692;47.480;19.216;2023-01-29T00:11:25;3.40;99.90
25877;DHT22;13692;47.480;19.216;2023-01-29T00:13:52;3.40;99.90
25877;DHT22;13692;47.480;19.216;2023-01-29T00:16:19;3.40;99.90
25877;DHT22;13692;47.480;19.216;2023-01-29T00:18:46;3.40;99.90
25877;DHT22;13692;47.480;19.216;2023-01-29T00:21:16;3.40;99.90
25877;DHT22;13692;47.480;19.216;2023-01-29T00:23:44;3.40;99.90
25877;DHT22;13692;47.480;19.216;2023-01-29T00:26:11;3.30;99.90
25877;DHT22;13692;47.480;19.216;2023-01-29T00:28:38;3.40;99.90
25877;DHT22;13692;47.480;19.216;2023-01-29T00:31:17;3.40;99.90
25877;DHT22;13692;47.480;19.216;2023-01-29T00:33:44;3.30;99.90
25877;DHT22;13692;47.480;19.216;2023-01-29T00:36:13;3.40;99.90
25877;DHT22;13692;47.480;19.216;2023-01-29T00:38:40;3.30;99.90
25877;DHT22;13692;47.480;19.216;2023-01-29T00:41:11;3.30;99.90
25877;DHT22;13692;47.480;19.216;2023-01-29T00:43:58;3.20;99.90
25877;DHT22;13692;47.480;19.216;2023-01-29T00:46:43;3.20;99.90
25877;DHT22;13692;47.480;19.216;2023-01-29T00:49:10;3.20;99.90
25877;DHT22;13692;47.480;19.216;2023-01-29T00:51:38;3.20;99.90
25877;DHT22;13692;47.480;19.216;2023-01-29T00:54:05;3.10;99.90
25877;DHT22;13692;47.480;19.216;2023-01-29T00:56:35;3.10;99.90
25877;DHT22;13692;47.480;19.216;2023-01-29T00:59:03;3.00;99.90
25877;DHT22;13692;47.480;19.216;2023-01-29T01:01:29;2.90;99.90
25877;DHT22;13692;47.480;19.216;2023-01-29T01:04:23;2.90;99.90
25877;DHT22;13692;47.480;19.216;2023-01-29T01:06:50;2.90;99.90
25877;DHT22;13692;47.480;19.216;2023-01-29T01:09:16;2.80;99.90
25877;DHT22;13692;47.480;19.216;2023-01-29T01:12:02;2.70;99.90
25877;DHT22;13692;47.480;19.216;2023-01-29T01:14:29;2.60;99.90
25877;DHT22;13692;47.480;19.216;2023-01-29T01:16:56;2.50;99.90
25877;DHT22;13692;47.480;19.216;2023-01-29T01:19:23;2.50;99.90
25877;DHT22;13692;47.480;19.216;2023-01-29T01:21:49;2.40;99.90
25877;DHT22;13692;47.480;19.216;2023-01-29T01:24:16;2.30;99.90
25877;DHT22;13692;47.480;19.216;2023-01-29T01:26:43;2.20;99.90
25877;DHT22;13692;47.480;19.216;2023-01-29T01:29:11;2.10;99.90
25877;DHT22;13692;47.480;19.216;2023-01-29T01:31:38;2.10;99.90
25877;DHT22;13692;47.480;19.216;2023-01-29T01:34:05;2.00;99.90
25877;DHT22;13692;47.480;19.216;2023-01-29T01:36:32;1.90;99.90
25877;DHT22;13692;47.480;19.216;2023-01-29T01:38:59;1.80;99.90
25877;DHT22;13692;47.480;19.216;2023-01-29T01:41:26;1.80;99.90
25877;DHT22;13692;47.480;19.216;2023-01-29T01:44:00;1.70;99.90
25877;DHT22;13692;47.480;19.216;2023-01-29T01:46:29;1.70;99.90
25877;DHT22;13692;47.480;19.216;2023-01-29T01:49:10;1.70;99.90
25877;DHT22;13692;47.480;19.216;2023-01-29T01:51:42;1.60;99.90
25877;DHT22;13692;47.480;19.216;2023-01-29T01:54:16;1.60;99.90
25877;DHT22;13692;47.480;19.216;2023-01-29T01:56:54;1.50;99.90
25877;DHT22;13692;47.480;19.216;2023-01-29T01:59:22;1.50;99.90
25877;DHT22;13692;47.480;19.216;2023-01-29T02:01:53;1.50;99.90
25877;DHT22;13692;47.480;19.216;2023-01-29T02:04:22;1.50;99.90
25877;DHT22;13692;47.480;19.216;2023-01-29T02:07:11;1.40;99.90
25877;DHT22;13692;47.480;19.216;2023-01-29T02:10:09;1.50;99.90
25877;DHT22;13692;47.480;19.216;2023-01-29T02:12:37;1.40;99.90
25877;DHT22;13692;47.480;19.216;2023-01-29T02:15:04;1.40;99.90
25877;DHT22;13692;47.480;19.216;2023-01-29T02:17:32;1.40;99.90
25877;DHT22;13692;47.480;19.216;2023-01-29T02:36:19;1.40;99.90
25877;DHT22;13692;47.480;19.216;2023-01-29T02:42:00;1.40;99.90
25877;DHT22;13692;47.480;19.216;2023-01-29T02:47:21;1.30;99.90
25877;DHT22;13692;47.480;19.216;2023-01-29T02:52:35;1.30;99.90
25877;DHT22;13692;47.480;19.216;2023-01-29T02:55:11;1.20;99.90
25877;DHT22;13692;47.480;19.216;2023-01-29T02:57:42;1.10;99.90
25877;DHT22;13692;47.480;19.216;2023-01-29T03:00:18;1.10;99.90
25877;DHT22;13692;47.480;19.216;2023-01-29T03:08:39;1.10;99.90
25877;DHT22;13692;47.480;19.216;2023-01-29T03:11:12;1.10;99.90
25877;DHT22;13692;47.480;19.216;2023-01-29T03:16:19;1.10;99.90
25877;DHT22;13692;47.480;19.216;2023-01-29T03:18:56;1.10;99.90
25877;DHT22;13692;47.480;19.216;2023-01-29T03:21:29;1.10;99.90
25877;DHT22;13692;47.480;19.216;2023-01-29T03:27:23;1.10;99.90
25877;DHT22;13692;47.480;19.216;2023-01-29T03:30:13;1.10;99.90
25877;DHT22;13692;47.480;19.216;2023-01-29T03:33:04;1.10;99.90
25877;DHT22;13692;47.480;19.216;2023-01-29T03:35:40;1.10;99.90
25877;DHT22;13692;47.480;19.216;2023-01-29T03:38:10;1.10;99.90
25877;DHT22;13692;47.480;19.216;2023-01-29T03:40:51;1.20;99.90
25877;DHT22;13692;47.480;19.216;2023-01-29T03:46:30;1.30;99.90
25877;DHT22;13692;47.480;19.216;2023-01-29T03:51:57;1.40;99.90
25877;DHT22;13692;47.480;19.216;2023-01-29T03:54:41;1.40;99.90
25877;DHT22;13692;47.480;19.216;2023-01-29T03:57:32;1.40;99.90
25877;DHT22;13692;47.480;19.216;2023-01-29T04:00:16;1.40;99.90
25877;DHT22;13692;47.480;19.216;2023-01-29T04:03:17;1.50;99.90
25877;DHT22;13692;47.480;19.216;2023-01-29T04:05:46;1.50;99.90
25877;DHT22;13692;47.480;19.216;2023-01-29T04:08:22;1.50;99.90
25877;DHT22;13692;47.480;19.216;2023-01-29T04:10:54;1.60;99.90
25877;DHT22;13692;47.480;19.216;2023-01-29T04:13:24;1.60;99.90
25877;DHT22;13692;47.480;19.216;2023-01-29T04:15:56;1.60;99.90
25877;DHT22;13692;47.480;19.216;2023-01-29T04:18:24;1.60;99.90
25877;DHT22;13692;47.480;19.216;2023-01-29T04:20:51;1.60;99.90
25877;DHT22;13692;47.480;19.216;2023-01-29T04:23:24;1.70;99.90
25877;DHT22;13692;47.480;19.216;2023-01-29T04:28:58;1.80;99.90
25877;DHT22;13692;47.480;19.216;2023-01-29T04:31:35;1.80;99.90
25877;DHT22;13692;47.480;19.216;2023-01-29T04:34:09;1.70;99.90
25877;DHT22;13692;47.480;19.216;2023-01-29T04:39:15;1.80;99.90
25877;DHT22;13692;47.480;19.216;2023-01-29T04:42:02;1.80;99.90
25877;DHT22;13692;47.480;19.216;2023-01-29T05:00:29;1.90;99.90
25877;DHT22;13692;47.480;19.216;2023-01-29T05:02:59;1.90;99.90
25877;DHT22;13692;47.480;19.216;2023-01-29T05:05:28;2.00;99.90
25877;DHT22;13692;47.480;19.216;2023-01-29T05:07:57;2.00;99.90
25877;DHT22;13692;47.480;19.216;2023-01-29T05:10:25;2.00;99.90
25877;DHT22;13692;47.480;19.216;2023-01-29T05:12:59;2.00;99.90
25877;DHT22;13692;47.480;19.216;2023-01-29T05:15:38;1.90;99.90
25877;DHT22;13692;47.480;19.216;2023-01-29T05:18:06;1.90;99.90
25877;DHT22;13692;47.480;19.216;2023-01-29T05:20:37;1.90;99.90
25877;DHT22;13692;47.480;19.216;2023-01-29T05:23:16;1.80;99.90
25877;DHT22;13692;47.480;19.216;2023-01-29T05:25:44;1.80;99.90
25877;DHT22;13692;47.480;19.216;2023-01-29T05:28:12;1.80;99.90
25877;DHT22;13692;47.480;19.216;2023-01-29T05:30:47;1.90;99.90
25877;DHT22;13692;47.480;19.216;2023-01-29T05:35:43;1.90;99.90
25877;DHT22;13692;47.480;19.216;2023-01-29T05:38:11;1.80;99.90
25877;DHT22;13692;47.480;19.216;2023-01-29T05:40:38;1.80;99.90
25877;DHT22;13692;47.480;19.216;2023-01-29T05:43:05;1.70;99.90
25877;DHT22;13692;47.480;19.216;2023-01-29T05:45:38;1.70;99.90
25877;DHT22;13692;47.480;19.216;2023-01-29T05:48:05;1.80;99.90
25877;DHT22;13692;47.480;19.216;2023-01-29T05:50:32;1.80;99.90
25877;DHT22;13692;47.480;19.216;2023-01-29T05:53:00;1.90;99.90
25877;DHT22;13692;47.480;19.216;2023-01-29T05:55:28;2.00;99.90
25877;DHT22;13692;47.480;19.216;2023-01-29T05:57:55;2.00;99.90
25877;DHT22;13692;47.480;19.216;2023-01-29T06:00:22;2.10;99.90
25877;DHT22;13692;47.480;19.216;2023-01-29T06:02:49;2.10;99.90
25877;DHT22;13692;47.480;19.216;2023-01-29T06:05:16;2.10;99.90
25877;DHT22;13692;47.480;19.216;2023-01-29T06:07:43;2.00;99.90
25877;DHT22;13692;47.480;19.216;2023-01-29T06:10:15;2.10;99.90
25877;DHT22;13692;47.480;19.216;2023-01-29T06:12:43;2.10;99.90
25877;DHT22;13692;47.480;19.216;2023-01-29T06:15:11;2.10;99.90
25877;DHT22;13692;47.480;19.216;2023-01-29T06:17:41;2.10;99.90
25877;DHT22;13692;47.480;19.216;2023-01-29T06:20:09;2.00;99.90
25877;DHT22;13692;47.480;19.216;2023-01-29T06:22:36;2.00;99.90
25877;DHT22;13692;47.480;19.216;2023-01-29T06:25:03;2.10;99.90
25877;DHT22;13692;47.480;19.216;2023-01-29T06:27:30;2.10;99.90
25877;DHT22;13692;47.480;19.216;2023-01-29T06:29:57;2.10;99.90
25877;DHT22;13692;47.480;19.216;2023-01-29T06:32:24;2.10;99.90
25877;DHT22;13692;47.480;19.216;2023-01-29T06:34:51;2.20;99.90
25877;DHT22;13692;47.480;19.216;2023-01-29T06:37:18;2.10;99.90
25877;DHT22;13692;47.480;19.216;2023-01-29T06:39:45;2.20;99.90
25877;DHT22;13692;47.480;19.216;2023-01-29T06:42:12;2.20;99.90
25877;DHT22;13692;47.480;19.216;2023-01-29T06:44:39;2.20;99.90
25877;DHT22;13692;47.480;19.216;2023-01-29T06:47:06;2.30;99.90
25877;DHT22;13692;47.480;19.216;2023-01-29T06:49:33;2.30;99.90
25877;DHT22;13692;47.480;19.216;2023-01-29T06:52:00;2.30;99.90
25877;DHT22;13692;47.480;19.216;2023-01-29T06:54:27;2.30;99.90
25877;DHT22;13692;47.480;19.216;2023-01-29T06:56:54;2.30;99.90
25877;DHT22;13692;47.480;19.216;2023-01-29T06:59:21;2.30;99.90
25877;DHT22;13692;47.480;19.216;2023-01-29T07:01:48;2.30;99.90
25877;DHT22;13692;47.480;19.216;2023-01-29T07:04:15;2.30;99.90
25877;DHT22;13692;47.480;19.216;2023-01-29T07:06:42;2.40;99.90
25877;DHT22;13692;47.480;19.216;2023-01-29T07:09:11;2.40;99.90
25877;DHT22;13692;47.480;19.216;2023-01-29T07:11:39;2.40;99.90
25877;DHT22;13692;47.480;19.216;2023-01-29T07:14:06;2.50;99.90
25877;DHT22;13692;47.480;19.216;2023-01-29T07:16:33;2.50;99.90
25877;DHT22;13692;47.480;19.216;2023-01-29T07:19:00;2.40;99.90
25877;DHT22;13692;47.480;19.216;2023-01-29T07:21:28;2.50;99.90
25877;DHT22;13692;47.480;19.216;2023-01-29T07:23:55;2.50;99.90
25877;DHT22;13692;47.480;19.216;2023-01-29T07:26:22;2.60;99.90
25877;DHT22;13692;47.480;19.216;2023-01-29T07:28:49;2.60;99.90
25877;DHT22;13692;47.480;19.216;2023-01-29T07:31:16;2.60;99.90
25877;DHT22;13692;47.480;19.216;2023-01-29T07:33:43;2.60;99.90
25877;DHT22;13692;47.480;19.216;2023-01-29T07:36:11;2.60;99.90
25877;DHT22;13692;47.480;19.216;2023-01-29T07:38:39;2.70;99.90
25877;DHT22;13692;47.480;19.216;2023-01-29T07:41:06;2.70;99.90
25877;DHT22;13692;47.480;19.216;2023-01-29T07:43:33;2.70;99.90
25877;DHT22;13692;47.480;19.216;2023-01-29T07:46:03;2.70;99.90
25877;DHT22;13692;47.480;19.216;2023-01-29T07:48:31;2.70;99.90
25877;DHT22;13692;47.480;19.216;2023-01-29T07:50:58;2.70;99.90
25877;DHT22;13692;47.480;19.216;2023-01-29T07:53:25;2.70;99.90
25877;DHT22;13692;47.480;19.216;2023-01-29T07:55:52;2.80;99.90
25877;DHT22;13692;47.480;19.216;2023-01-29T07:58:19;2.80;99.90
25877;DHT22;13692;47.480;19.216;2023-01-29T08:00:46;2.80;99.90
25877;DHT22;13692;47.480;19.216;2023-01-29T08:03:16;2.80;99.90
25877;DHT22;13692;47.480;19.216;2023-01-29T08:05:44;2.90;99.90
25877;DHT22;13692;47.480;19.216;2023-01-29T08:08:11;2.90;99.90
25877;DHT22;13692;47.480;19.216;2023-01-29T08:10:39;2.90;99.90
25877;DHT22;13692;47.480;19.216;2023-01-29T08:13:07;3.00;99.90
25877;DHT22;13692;47.480;19.216;2023-01-29T08:15:34;3.00;99.90
25877;DHT22;13692;47.480;19.216;2023-01-29T08:18:21;3.00;99.90
25877;DHT22;13692;47.480;19.216;2023-01-29T08:20:48;3.00;99.90
25877;DHT22;13692;47.480;19.216;2023-01-29T08:23:15;3.00;99.90
25877;DHT22;13692;47.480;19.216;2023-01-29T08:25:42;3.00;99.90
25877;DHT22;13692;47.480;19.216;2023-01-29T08:28:09;3.00;99.90
25877;DHT22;13692;47.480;19.216;2023-01-29T08:30:37;3.00;99.90
25877;DHT22;13692;47.480;19.216;2023-01-29T08:33:04;3.00;99.90
25877;DHT22;13692;47.480;19.216;2023-01-29T08:35:31;3.00;99.90
25877;DHT22;13692;47.480;19.216;2023-01-29T08:38:00;3.00;99.90
25877;DHT22;13692;47.480;19.216;2023-01-29T08:40:29;3.00;99.90
25877;DHT22;13692;47.480;19.216;2023-01-29T08:43:01;3.00;99.90
25877;DHT22;13692;47.480;19.216;2023-01-29T08:45:35;3.00;99.90
25877;DHT22;13692;47.480;19.216;2023-01-29T08:48:03;3.00;99.90
25877;DHT22;13692;47.480;19.216;2023-01-29T08:50:30;3.10;99.90
25877;DHT22;13692;47.480;19.216;2023-01-29T08:52:59;3.00;99.90
25877;DHT22;13692;47.480;19.216;2023-01-29T08:55:27;3.00;99.90
25877;DHT22;13692;47.480;19.216;2023-01-29T08:57:55;3.00;99.90
25877;DHT22;13692;47.480;19.216;2023-01-29T09:00:25;3.10;99.90
25877;DHT22;13692;47.480;19.216;2023-01-29T09:02:52;3.10;99.90
25877;DHT22;13692;47.480;19.216;2023-01-29T09:05:19;3.10;99.90
25877;DHT22;13692;47.480;19.216;2023-01-29T09:07:46;3.10;99.90
25877;DHT22;13692;47.480;19.216;2023-01-29T09:10:13;3.10;99.90
25877;DHT22;13692;47.480;19.216;2023-01-29T09:12:41;3.10;99.90
25877;DHT22;13692;47.480;19.216;2023-01-29T09:15:08;3.10;99.90
25877;DHT22;13692;47.480;19.216;2023-01-29T09:17:35;3.20;99.90
25877;DHT22;13692;47.480;19.216;2023-01-29T09:20:03;3.20;99.90
25877;DHT22;13692;47.480;19.216;2023-01-29T09:22:32;3.20;99.90
25877;DHT22;13692;47.480;19.216;2023-01-29T09:24:59;3.20;99.90
25877;DHT22;13692;47.480;19.216;2023-01-29T09:27:25;3.00;99.90
25877;DHT22;13692;47.480;19.216;2023-01-29T09:29:52;3.20;99.90
25877;DHT22;13692;47.480;19.216;2023-01-29T09:32:19;3.20;99.90
25877;DHT22;13692;47.480;19.216;2023-01-29T09:35:06;3.30;99.90
25877;DHT22;13692;47.480;19.216;2023-01-29T09:37:35;3.30;99.90
25877;DHT22;13692;47.480;19.216;2023-01-29T09:40:03;3.30;99.90
25877;DHT22;13692;47.480;19.216;2023-01-29T09:42:37;3.30;99.90
25877;DHT22;13692;47.480;19.216;2023-01-29T09:45:13;3.30;99.90
25877;DHT22;13692;47.480;19.216;2023-01-29T09:47:42;3.30;99.90
25877;DHT22;13692;47.480;19.216;2023-01-29T09:50:25;3.30;99.90
25877;DHT22;13692;47.480;19.216;2023-01-29T09:55:25;3.40;99.90
25877;DHT22;13692;47.480;19.216;2023-01-29T10:00:34;3.40;99.90
25877;DHT22;13692;47.480;19.216;2023-01-29T10:23:23;3.50;99.90
25877;DHT22;13692;47.480;19.216;2023-01-29T10:25:53;3.40;99.90
25877;DHT22;13692;47.480;19.216;2023-01-29T10:28:58;3.50;99.90
25877;DHT22;13692;47.480;19.216;2023-01-29T10:31:21;3.50;99.90
25877;DHT22;13692;47.480;19.216;2023-01-29T10:33:53;3.50;99.90
25877;DHT22;13692;47.480;19.216;2023-01-29T10:39:01;3.50;99.90
25877;DHT22;13692;47.480;19.216;2023-01-29T11:00:21;3.70;99.90
25877;DHT22;13692;47.480;19.216;2023-01-29T11:02:50;3.70;99.90
25877;DHT22;13692;47.480;19.216;2023-01-29T11:05:37;3.70;99.90
25877;DHT22;13692;47.480;19.216;2023-01-29T11:08:20;3.80;99.90
25877;DHT22;13692;47.480;19.216;2023-01-29T11:13:32;3.70;99.90
25877;DHT22;13692;47.480;19.216;2023-01-29T11:16:02;3.70;99.90
25877;DHT22;13692;47.480;19.216;2023-01-29T11:18:57;3.80;99.90
25877;DHT22;13692;47.480;19.216;2023-01-29T11:21:27;3.80;99.90
25877;DHT22;13692;47.480;19.216;2023-01-29T11:24:11;3.80;99.90
25877;DHT22;13692;47.480;19.216;2023-01-29T11:26:42;3.80;99.90
25877;DHT22;13692;47.480;19.216;2023-01-29T11:31:56;3.90;99.90
25877;DHT22;13692;47.480;19.216;2023-01-29T11:34:24;3.80;99.90
25877;DHT22;13692;47.480;19.216;2023-01-29T11:39:26;3.70;99.90
25877;DHT22;13692;47.480;19.216;2023-01-29T11:41:58;3.70;99.90
25877;DHT22;13692;47.480;19.216;2023-01-29T11:46:57;3.70;99.90
25877;DHT22;13692;47.480;19.216;2023-01-29T11:49:34;3.60;99.90
25877;DHT22;13692;47.480;19.216;2023-01-29T11:52:04;3.60;99.90
25877;DHT22;13692;47.480;19.216;2023-01-29T11:57:31;3.70;99.90
25877;DHT22;13692;47.480;19.216;2023-01-29T12:00:27;3.70;99.90
25877;DHT22;13692;47.480;19.216;2023-01-29T12:05:25;3.70;99.90
25877;DHT22;13692;47.480;19.216;2023-01-29T12:07:57;3.70;99.90
25877;DHT22;13692;47.480;19.216;2023-01-29T12:10:35;3.70;99.90
25877;DHT22;13692;47.480;19.216;2023-01-29T12:15:38;3.60;99.90
25877;DHT22;13692;47.480;19.216;2023-01-29T12:20:54;3.50;99.90
25877;DHT22;13692;47.480;19.216;2023-01-29T12:26:34;3.50;99.90
25877;DHT22;13692;47.480;19.216;2023-01-29T12:32:36;3.50;99.90
25877;DHT22;13692;47.480;19.216;2023-01-29T12:35:55;3.50;99.90
25877;DHT22;13692;47.480;19.216;2023-01-29T12:38:02;3.40;99.90
25877;DHT22;13692;47.480;19.216;2023-01-29T12:40:46;3.40;99.90
25877;DHT22;13692;47.480;19.216;2023-01-29T12:43:21;3.40;99.90
25877;DHT22;13692;47.480;19.216;2023-01-29T12:45:53;3.40;99.90
25877;DHT22;13692;47.480;19.216;2023-01-29T12:48:35;3.40;99.90
25877;DHT22;13692;47.480;19.216;2023-01-29T12:51:17;3.40;99.90
25877;DHT22;13692;47.480;19.216;2023-01-29T12:54:17;3.40;99.90
25877;DHT22;13692;47.480;19.216;2023-01-29T12:56:52;3.40;99.90
25877;DHT22;13692;47.480;19.216;2023-01-29T12:59:38;3.40;99.90
25877;DHT22;13692;47.480;19.216;2023-01-29T13:05:49;3.40;99.90
25877;DHT22;13692;47.480;19.216;2023-01-29T13:08:26;3.40;99.90
25877;DHT22;13692;47.480;19.216;2023-01-29T13:10:58;3.40;99.90
25877;DHT22;13692;47.480;19.216;2023-01-29T13:13:50;3.40;99.90
25877;DHT22;13692;47.480;19.216;2023-01-29T13:16:24;3.50;99.90
25877;DHT22;13692;47.480;19.216;2023-01-29T13:19:01;3.50;99.90
25877;DHT22;13692;47.480;19.216;2023-01-29T13:21:38;3.50;99.90
25877;DHT22;13692;47.480;19.216;2023-01-29T13:24:35;3.50;99.90
25877;DHT22;13692;47.480;19.216;2023-01-29T13:27:05;3.60;99.90
25877;DHT22;13692;47.480;19.216;2023-01-29T13:29:32;3.60;99.90
25877;DHT22;13692;47.480;19.216;2023-01-29T13:32:03;3.50;99.90
25877;DHT22;13692;47.480;19.216;2023-01-29T13:34:34;3.50;99.90
25877;DHT22;13692;47.480;19.216;2023-01-29T13:37:11;3.60;99.90
25877;DHT22;13692;47.480;19.216;2023-01-29T13:39:48;3.60;99.90
25877;DHT22;13692;47.480;19.216;2023-01-29T13:44:54;3.60;99.90
25877;DHT22;13692;47.480;19.216;2023-01-29T13:47:30;3.60;99.90
25877;DHT22;13692;47.480;19.216;2023-01-29T13:50:06;3.60;99.90
25877;DHT22;13692;47.480;19.216;2023-01-29T13:52:42;3.60;99.90
25877;DHT22;13692;47.480;19.216;2023-01-29T14:10:30;3.40;99.90
25877;DHT22;13692;47.480;19.216;2023-01-29T14:15:32;3.40;99.90
25877;DHT22;13692;47.480;19.216;2023-01-29T14:18:16;3.30;99.90
25877;DHT22;13692;47.480;19.216;2023-01-29T14:25:51;3.20;99.90
25877;DHT22;13692;47.480;19.216;2023-01-29T14:28:27;3.30;99.90
25877;DHT22;13692;47.480;19.216;2023-01-29T14:30:55;3.20;99.90
25877;DHT22;13692;47.480;19.216;2023-01-29T14:33:37;3.10;99.90
25877;DHT22;13692;47.480;19.216;2023-01-29T14:36:14;3.00;99.90
25877;DHT22;13692;47.480;19.216;2023-01-29T14:38:49;3.00;99.90
25877;DHT22;13692;47.480;19.216;2023-01-29T14:41:28;3.00;99.90
25877;DHT22;13692;47.480;19.216;2023-01-29T14:47:02;2.90;99.90
25877;DHT22;13692;47.480;19.216;2023-01-29T14:52:18;2.80;99.90
25877;DHT22;13692;47.480;19.216;2023-01-29T14:54:47;2.90;99.90
25877;DHT22;13692;47.480;19.216;2023-01-29T14:57:17;2.80;99.90
25877;DHT22;13692;47.480;19.216;2023-01-29T15:02:21;2.80;99.90
25877;DHT22;13692;47.480;19.216;2023-01-29T15:04:56;2.70;99.90
25877;DHT22;13692;47.480;19.216;2023-01-29T15:07:33;2.70;99.90
25877;DHT22;13692;47.480;19.216;2023-01-29T15:13:43;2.60;99.90
25877;DHT22;13692;47.480;19.216;2023-01-29T15:16:30;2.50;99.90
25877;DHT22;13692;47.480;19.216;2023-01-29T15:19:12;2.50;99.90
25877;DHT22;13692;47.480;19.216;2023-01-29T15:22:22;2.30;99.90
25877;DHT22;13692;47.480;19.216;2023-01-29T15:27:33;2.10;99.90
25877;DHT22;13692;47.480;19.216;2023-01-29T15:30:03;2.10;99.90
25877;DHT22;13692;47.480;19.216;2023-01-29T15:32:34;2.00;99.90
25877;DHT22;13692;47.480;19.216;2023-01-29T15:35:07;1.90;99.90
25877;DHT22;13692;47.480;19.216;2023-01-29T15:37:36;1.80;99.90
25877;DHT22;13692;47.480;19.216;2023-01-29T15:40:06;1.70;99.90
25877;DHT22;13692;47.480;19.216;2023-01-29T15:42:43;1.70;99.90
25877;DHT22;13692;47.480;19.216;2023-01-29T15:45:28;1.70;99.90
25877;DHT22;13692;47.480;19.216;2023-01-29T15:48:03;1.70;99.90
25877;DHT22;13692;47.480;19.216;2023-01-29T15:50:36;1.60;99.90
25877;DHT22;13692;47.480;19.216;2023-01-29T15:53:15;1.60;99.90
25877;DHT22;13692;47.480;19.216;2023-01-29T15:55:44;1.50;99.90
25877;DHT22;13692;47.480;19.216;2023-01-29T15:58:25;1.40;99.90
25877;DHT22;13692;47.480;19.216;2023-01-29T16:00:56;1.40;99.90
25877;DHT22;13692;47.480;19.216;2023-01-29T16:03:25;1.30;99.90
25877;DHT22;13692;47.480;19.216;2023-01-29T16:05:54;1.30;99.90
25877;DHT22;13692;47.480;19.216;2023-01-29T16:08:23;1.20;99.90
25877;DHT22;13692;47.480;19.216;2023-01-29T16:11:02;1.20;99.90
25877;DHT22;13692;47.480;19.216;2023-01-29T16:13:32;1.10;99.90
25877;DHT22;13692;47.480;19.216;2023-01-29T16:16:39;1.00;99.90
25877;DHT22;13692;47.480;19.216;2023-01-29T16:19:24;1.00;99.90
25877;DHT22;13692;47.480;19.216;2023-01-29T16:22:02;0.90;99.90
25877;DHT22;13692;47.480;19.216;2023-01-29T16:24:33;1.00;99.90
25877;DHT22;13692;47.480;19.216;2023-01-29T16:27:08;1.00;99.90
25877;DHT22;13692;47.480;19.216;2023-01-29T16:29:37;0.90;99.90
25877;DHT22;13692;47.480;19.216;2023-01-29T16:32:05;0.90;99.90
25877;DHT22;13692;47.480;19.216;2023-01-29T16:34:40;0.90;99.90
25877;DHT22;13692;47.480;19.216;2023-01-29T16:39:48;0.90;99.90
25877;DHT22;13692;47.480;19.216;2023-01-29T16:42:24;0.90;99.90
25877;DHT22;13692;47.480;19.216;2023-01-29T16:47:27;1.00;99.90
25877;DHT22;13692;47.480;19.216;2023-01-29T16:52:56;0.90;99.90
25877;DHT22;13692;47.480;19.216;2023-01-29T16:55:41;0.90;99.90
25877;DHT22;13692;47.480;19.216;2023-01-29T16:58:19;0.80;99.90
25877;DHT22;13692;47.480;19.216;2023-01-29T17:01:14;0.90;99.90
25877;DHT22;13692;47.480;19.216;2023-01-29T17:03:41;0.90;99.90
25877;DHT22;13692;47.480;19.216;2023-01-29T17:06:11;0.90;99.90
25877;DHT22;13692;47.480;19.216;2023-01-29T17:08:42;0.90;99.90
25877;DHT22;13692;47.480;19.216;2023-01-29T17:11:17;1.00;99.90
25877;DHT22;13692;47.480;19.216;2023-01-29T17:13:48;1.00;99.90
25877;DHT22;13692;47.480;19.216;2023-01-29T17:16:28;0.90;99.90
25877;DHT22;13692;47.480;19.216;2023-01-29T17:18:57;0.90;99.90
25877;DHT22;13692;47.480;19.216;2023-01-29T17:21:25;0.90;99.90
25877;DHT22;13692;47.480;19.216;2023-01-29T17:23:55;0.90;99.90
25877;DHT22;13692;47.480;19.216;2023-01-29T17:26:23;0.90;99.90
25877;DHT22;13692;47.480;19.216;2023-01-29T17:28:53;0.90;99.90
25877;DHT22;13692;47.480;19.216;2023-01-29T17:31:21;0.80;99.90
25877;DHT22;13692;47.480;19.216;2023-01-29T17:33:49;0.80;99.90
25877;DHT22;13692;47.480;19.216;2023-01-29T17:36:17;0.80;99.90
25877;DHT22;13692;47.480;19.216;2023-01-29T17:38:45;0.70;99.90
25877;DHT22;13692;47.480;19.216;2023-01-29T17:41:24;0.70;99.90
25877;DHT22;13692;47.480;19.216;2023-01-29T17:43:53;0.70;99.90
25877;DHT22;13692;47.480;19.216;2023-01-29T17:46:21;0.70;99.90
25877;DHT22;13692;47.480;19.216;2023-01-29T17:48:49;0.70;99.90
25877;DHT22;13692;47.480;19.216;2023-01-29T17:51:17;0.70;99.90
25877;DHT22;13692;47.480;19.216;2023-01-29T17:53:45;0.60;99.90
25877;DHT22;13692;47.480;19.216;2023-01-29T17:56:20;0.60;99.90
25877;DHT22;13692;47.480;19.216;2023-01-29T17:58:49;0.60;99.90
25877;DHT22;13692;47.480;19.216;2023-01-29T18:01:17;0.60;99.90
25877;DHT22;13692;47.480;19.216;2023-01-29T18:03:45;0.60;99.90
25877;DHT22;13692;47.480;19.216;2023-01-29T18:06:23;0.50;99.90
25877;DHT22;13692;47.480;19.216;2023-01-29T18:08:52;0.50;99.90
25877;DHT22;13692;47.480;19.216;2023-01-29T18:11:20;0.50;99.90
25877;DHT22;13692;47.480;19.216;2023-01-29T18:13:48;0.50;99.90
25877;DHT22;13692;47.480;19.216;2023-01-29T18:16:16;0.50;99.90
25877;DHT22;13692;47.480;19.216;2023-01-29T18:18:52;0.40;99.90
25877;DHT22;13692;47.480;19.216;2023-01-29T18:21:20;0.40;99.90
25877;DHT22;13692;47.480;19.216;2023-01-29T18:23:49;0.40;99.90
25877;DHT22;13692;47.480;19.216;2023-01-29T18:26:17;0.30;99.90
25877;DHT22;13692;47.480;19.216;2023-01-29T18:28:46;0.30;99.90
25877;DHT22;13692;47.480;19.216;2023-01-29T18:31:14;0.30;99.90
25877;DHT22;13692;47.480;19.216;2023-01-29T18:33:42;0.30;99.90
25877;DHT22;13692;47.480;19.216;2023-01-29T18:36:12;0.20;99.90
25877;DHT22;13692;47.480;19.216;2023-01-29T18:38:39;0.20;99.90
25877;DHT22;13692;47.480;19.216;2023-01-29T18:41:08;0.20;99.90
25877;DHT22;13692;47.480;19.216;2023-01-29T18:43:38;0.40;99.90
25877;DHT22;13692;47.480;19.216;2023-01-29T18:46:06;0.10;99.90
25877;DHT22;13692;47.480;19.216;2023-01-29T18:48:34;0.10;99.90
25877;DHT22;13692;47.480;19.216;2023-01-29T18:51:02;0.10;99.90
25877;DHT22;13692;47.480;19.216;2023-01-29T18:53:31;0.10;99.90
25877;DHT22;13692;47.480;19.216;2023-01-29T18:56:03;0.10;99.90
25877;DHT22;13692;47.480;19.216;2023-01-29T18:58:32;0.10;99.90
25877;DHT22;13692;47.480;19.216;2023-01-29T19:01:06;0.00;99.90
25877;DHT22;13692;47.480;19.216;2023-01-29T19:03:40;0.00;99.90
25877;DHT22;13692;47.480;19.216;2023-01-29T19:06:09;0.10;99.90
25877;DHT22;13692;47.480;19.216;2023-01-29T19:08:38;0.10;99.90
25877;DHT22;13692;47.480;19.216;2023-01-29T19:11:08;0.00;99.90
25877;DHT22;13692;47.480;19.216;2023-01-29T19:13:36;0.00;99.90